createdAt,value
2019-02-15T00:01:26.043Z,98.60
2019-02-15T00:03:56.456Z,98.60
2019-02-15T00:06:26.777Z,98.70
2019-02-15T00:08:57.282Z,99.10
2019-02-15T00:11:27.625Z,99.50
2019-02-15T00:13:57.956Z,99.50
2019-02-15T00:16:28.265Z,99.50
2019-02-15T00:19:15.917Z,99.70
2019-02-15T00:21:48.323Z,99.70
2019-02-15T00:24:18.649Z,99.80
2019-02-15T00:26:48.878Z,99.90
2019-02-15T00:29:19.080Z,99.90
2019-02-15T00:31:49.405Z,99.90
2019-02-15T00:34:19.680Z,99.90
2019-02-15T00:36:49.948Z,99.90
2019-02-15T00:39:20.260Z,99.90
2019-02-15T00:41:50.555Z,99.90
2019-02-15T00:44:20.928Z,99.90
2019-02-15T00:47:08.580Z,99.90
2019-02-15T00:49:46.670Z,99.90
2019-02-15T00:52:51.024Z,99.90
2019-02-15T00:55:33.620Z,99.90
2019-02-15T00:58:21.207Z,99.90
2019-02-15T01:01:05.290Z,99.90
2019-02-15T01:03:49.996Z,99.90
2019-02-15T01:06:37.634Z,99.90
2019-02-15T01:09:31.237Z,99.90
2019-02-15T01:12:11.276Z,99.90
2019-02-15T01:14:41.590Z,99.90
2019-02-15T01:17:11.909Z,99.90
2019-02-15T01:19:42.215Z,99.90
2019-02-15T01:22:12.496Z,99.90
2019-02-15T01:24:42.832Z,99.90
2019-02-15T01:27:24.878Z,99.90
2019-02-15T01:30:03.241Z,99.90
2019-02-15T01:32:50.429Z,99.90
2019-02-15T01:35:57.603Z,99.90
2019-02-15T01:38:36.920Z,99.90
2019-02-15T01:41:27.957Z,99.90
2019-02-15T01:44:17.200Z,99.90
2019-02-15T01:46:55.026Z,99.90
2019-02-15T01:49:25.315Z,99.90
2019-02-15T01:51:55.526Z,99.90
2019-02-15T01:54:25.876Z,99.90
2019-02-15T01:56:56.151Z,99.90
2019-02-15T01:59:26.553Z,99.90
2019-02-15T02:01:56.844Z,99.90
2019-02-15T02:04:27.127Z,99.90
2019-02-15T02:06:57.463Z,99.90
2019-02-15T02:09:27.708Z,99.90
2019-02-15T02:11:58.040Z,99.90
2019-02-15T02:14:28.351Z,99.90
2019-02-15T02:16:58.681Z,99.90
2019-02-15T02:19:29.025Z,99.90
2019-02-15T02:21:59.460Z,99.90
2019-02-15T02:24:29.769Z,99.90
2019-02-15T02:27:00.252Z,99.90
2019-02-15T02:29:30.608Z,99.90
2019-02-15T02:32:00.934Z,99.90
2019-02-15T02:34:31.281Z,99.90
2019-02-15T02:37:01.587Z,99.90
2019-02-15T02:39:31.935Z,99.90
2019-02-15T02:42:02.330Z,99.90
2019-02-15T02:44:32.841Z,99.90
2019-02-15T02:47:03.086Z,99.90
2019-02-15T02:49:33.352Z,99.90
2019-02-15T02:52:03.751Z,99.90
2019-02-15T02:54:34.062Z,99.90
2019-02-15T02:57:04.414Z,99.90
2019-02-15T02:59:34.702Z,99.90
2019-02-15T03:02:05.026Z,99.90
2019-02-15T03:04:35.342Z,99.90
2019-02-15T03:07:05.680Z,99.90
2019-02-15T03:09:36.102Z,99.90
2019-02-15T03:12:06.453Z,99.90
2019-02-15T03:14:36.753Z,99.90
2019-02-15T03:17:07.044Z,99.90
2019-02-15T03:19:37.425Z,99.90
2019-02-15T03:22:07.713Z,99.90
2019-02-15T03:24:38.046Z,99.90
2019-02-15T03:27:08.282Z,99.90
2019-02-15T03:29:38.620Z,99.90
2019-02-15T03:32:08.938Z,99.90
2019-02-15T03:34:39.307Z,99.90
2019-02-15T03:37:37.582Z,99.90
2019-02-15T03:40:33.079Z,99.90
2019-02-15T03:43:03.431Z,99.90
2019-02-15T03:45:33.833Z,99.90
2019-02-15T03:48:04.064Z,99.90
2019-02-15T03:50:34.454Z,99.90
2019-02-15T03:53:04.823Z,99.90
2019-02-15T03:55:35.255Z,99.90
2019-02-15T03:58:05.541Z,99.90
2019-02-15T04:00:35.800Z,99.90
2019-02-15T04:03:06.077Z,99.90
2019-02-15T04:05:36.408Z,99.90
2019-02-15T04:08:06.688Z,99.90
2019-02-15T04:10:37.046Z,99.90
2019-02-15T04:13:07.353Z,99.90
2019-02-15T04:15:40.830Z,99.90
2019-02-15T04:18:11.050Z,99.90
2019-02-15T04:20:41.268Z,99.90
2019-02-15T04:23:11.545Z,99.90
2019-02-15T04:25:41.875Z,99.90
2019-02-15T04:28:12.186Z,99.90
2019-02-15T04:30:42.522Z,99.90
2019-02-15T04:33:12.814Z,99.90
2019-02-15T04:35:43.113Z,99.90
2019-02-15T04:38:13.422Z,99.90
2019-02-15T04:40:43.691Z,99.90
2019-02-15T04:43:14.001Z,99.90
2019-02-15T04:45:44.200Z,99.90
2019-02-15T04:48:14.553Z,99.90
2019-02-15T04:50:44.820Z,99.90
2019-02-15T04:53:15.043Z,99.90
2019-02-15T04:55:45.357Z,99.90
2019-02-15T04:58:15.635Z,99.90
2019-02-15T05:00:45.914Z,99.90
2019-02-15T05:03:18.749Z,99.90
2019-02-15T05:05:48.201Z,99.90
2019-02-15T05:08:18.450Z,99.90
2019-02-15T05:10:48.653Z,99.90
2019-02-15T05:13:18.977Z,99.90
2019-02-15T05:15:49.247Z,99.90
2019-02-15T05:18:19.587Z,99.90
2019-02-15T05:20:57.347Z,99.90
2019-02-15T05:23:27.578Z,99.90
2019-02-15T05:25:57.918Z,99.90
2019-02-15T05:28:28.193Z,99.90
2019-02-15T05:30:58.381Z,99.90
2019-02-15T05:33:28.705Z,99.90
2019-02-15T05:35:58.925Z,99.90
2019-02-15T05:38:29.263Z,99.90
2019-02-15T05:40:59.486Z,99.90
2019-02-15T05:43:29.876Z,99.90
2019-02-15T05:46:00.197Z,99.90
2019-02-15T05:48:30.525Z,99.90
2019-02-15T05:51:00.797Z,99.90
2019-02-15T05:53:31.144Z,99.90
2019-02-15T05:56:02.696Z,99.90
2019-02-15T05:58:33.068Z,99.90
2019-02-15T06:01:03.579Z,99.90
2019-02-15T06:03:33.937Z,99.90
2019-02-15T06:06:04.254Z,99.90
2019-02-15T06:08:34.625Z,99.90
2019-02-15T06:11:08.010Z,99.90
2019-02-15T06:13:37.009Z,99.90
2019-02-15T06:16:07.281Z,99.90
2019-02-15T06:18:37.590Z,99.90
2019-02-15T06:21:07.872Z,99.90
2019-02-15T06:23:38.077Z,99.90
2019-02-15T06:26:08.408Z,99.90
2019-02-15T06:28:38.678Z,99.90
2019-02-15T06:31:09.027Z,99.90
2019-02-15T06:33:39.341Z,99.90
2019-02-15T06:36:09.658Z,99.90
2019-02-15T06:38:40.057Z,99.90
2019-02-15T06:41:12.328Z,99.90
2019-02-15T06:43:42.352Z,99.90
2019-02-15T06:46:12.654Z,99.90
2019-02-15T06:48:42.943Z,99.90
2019-02-15T06:51:13.266Z,99.90
2019-02-15T06:53:43.630Z,99.90
2019-02-15T06:56:13.854Z,99.90
2019-02-15T06:59:01.432Z,99.90
2019-02-15T07:01:42.760Z,99.90
2019-02-15T07:04:19.748Z,99.90
2019-02-15T07:06:50.151Z,99.90
2019-02-15T07:09:20.490Z,99.90
2019-02-15T07:11:50.949Z,99.90
2019-02-15T07:14:21.285Z,99.90
2019-02-15T07:16:51.624Z,99.90
2019-02-15T07:19:21.921Z,99.90
2019-02-15T07:21:52.335Z,99.90
2019-02-15T07:24:22.637Z,99.90
2019-02-15T07:26:52.998Z,99.90
2019-02-15T07:29:23.279Z,99.90
2019-02-15T07:31:53.666Z,99.90
2019-02-15T07:34:23.963Z,99.90
2019-02-15T07:36:54.339Z,99.90
2019-02-15T07:39:24.574Z,99.90
2019-02-15T07:41:54.958Z,99.90
2019-02-15T07:44:25.224Z,99.90
2019-02-15T07:46:55.606Z,99.90
2019-02-15T07:49:27.128Z,99.90
2019-02-15T07:51:57.633Z,99.90
2019-02-15T07:54:27.922Z,99.90
2019-02-15T07:56:58.216Z,99.90
2019-02-15T07:59:28.488Z,99.90
2019-02-15T08:02:02.062Z,99.90
2019-02-15T08:04:32.055Z,99.90
2019-02-15T08:07:02.484Z,99.90
2019-02-15T08:09:32.798Z,99.90
2019-02-15T08:12:03.117Z,99.90
2019-02-15T08:14:33.415Z,99.90
2019-02-15T08:17:03.643Z,99.90
2019-02-15T08:19:33.908Z,99.90
2019-02-15T08:22:04.217Z,99.90
2019-02-15T08:24:34.608Z,99.90
2019-02-15T08:27:04.998Z,99.90
2019-02-15T08:29:35.329Z,99.90
2019-02-15T08:32:05.649Z,99.90
2019-02-15T08:49:23.736Z,99.90
2019-02-15T08:49:49.781Z,99.90
2019-02-15T08:52:20.111Z,99.90
2019-02-15T08:54:50.469Z,99.90
2019-02-15T08:57:20.771Z,99.90
2019-02-15T08:59:51.144Z,99.90
2019-02-15T09:02:25.308Z,99.90
2019-02-15T09:04:55.541Z,99.90
2019-02-15T09:07:25.761Z,99.90
2019-02-15T09:09:56.166Z,99.90
2019-02-15T09:12:26.536Z,99.90
2019-02-15T09:14:56.898Z,99.90
2019-02-15T09:17:27.407Z,99.90
2019-02-15T09:19:57.744Z,99.90
2019-02-15T09:22:28.104Z,99.90
2019-02-15T09:24:58.470Z,99.80
2019-02-15T09:27:33.519Z,99.60
2019-02-15T09:30:04.468Z,99.80
2019-02-15T09:32:34.882Z,99.50
2019-02-15T09:35:05.407Z,99.90
2019-02-15T09:37:35.720Z,99.90
2019-02-15T09:40:06.508Z,99.40
2019-02-15T09:42:36.907Z,98.70
2019-02-15T09:45:09.241Z,98.20
2019-02-15T09:47:39.578Z,97.60
2019-02-15T09:50:12.016Z,98.50
2019-02-15T09:52:42.057Z,97.50
2019-02-15T09:55:12.376Z,96.10
2019-02-15T09:57:42.796Z,96.70
2019-02-15T10:00:13.143Z,97.00
2019-02-15T10:02:43.518Z,96.80
2019-02-15T10:05:13.901Z,96.70
2019-02-15T10:07:44.212Z,96.40
2019-02-15T10:10:14.722Z,96.20
2019-02-15T10:12:45.089Z,96.20
2019-02-15T10:15:15.374Z,95.80
2019-02-15T10:17:45.747Z,95.80
2019-02-15T10:20:16.121Z,95.60
2019-02-15T10:22:46.460Z,95.50
2019-02-15T10:25:17.676Z,95.60
2019-02-15T10:27:49.408Z,95.10
2019-02-15T10:30:20.088Z,94.70
2019-02-15T10:32:50.448Z,94.40
2019-02-15T10:35:20.763Z,94.00
2019-02-15T10:37:51.041Z,93.80
2019-02-15T10:40:22.221Z,93.70
2019-02-15T10:42:52.476Z,93.40
2019-02-15T10:45:24.025Z,93.20
2019-02-15T10:47:54.356Z,93.20
2019-02-15T10:50:24.664Z,93.00
2019-02-15T10:52:54.982Z,93.60
2019-02-15T10:55:25.231Z,93.60
2019-02-15T10:57:55.540Z,92.70
2019-02-15T11:00:25.862Z,92.50
2019-02-15T11:02:56.169Z,92.70
2019-02-15T11:05:26.511Z,91.60
2019-02-15T11:07:56.889Z,93.60
2019-02-15T11:10:27.184Z,91.70
2019-02-15T11:12:57.576Z,91.30
2019-02-15T11:15:27.865Z,91.70
2019-02-15T11:17:58.105Z,91.90
2019-02-15T11:20:28.511Z,91.60
2019-02-15T11:22:58.801Z,90.20
2019-02-15T11:25:29.169Z,90.60
2019-02-15T11:27:59.560Z,90.30
2019-02-15T11:30:29.870Z,88.80
2019-02-15T11:33:00.398Z,90.20
2019-02-15T11:35:30.760Z,89.60
2019-02-15T11:38:01.119Z,88.40
2019-02-15T11:40:31.507Z,88.60
2019-02-15T11:43:01.834Z,89.50
2019-02-15T11:45:32.089Z,89.80
2019-02-15T11:48:02.395Z,88.30
2019-02-15T11:50:32.708Z,87.00
2019-02-15T11:53:03.000Z,86.40
2019-02-15T11:55:34.161Z,87.40
2019-02-15T11:58:04.476Z,86.80
2019-02-15T12:00:35.681Z,86.90
2019-02-15T12:03:05.963Z,85.90
2019-02-15T12:05:36.181Z,84.90
2019-02-15T12:08:06.521Z,84.10
2019-02-15T12:10:36.809Z,84.10
2019-02-15T12:13:07.145Z,83.90
2019-02-15T12:15:37.531Z,84.00
2019-02-15T12:18:07.865Z,82.50
2019-02-15T12:20:38.180Z,82.90
2019-02-15T12:23:08.494Z,81.70
2019-02-15T12:25:42.110Z,81.60
2019-02-15T12:28:12.465Z,81.10
2019-02-15T12:30:42.819Z,80.30
2019-02-15T12:33:13.130Z,80.10
2019-02-15T12:35:43.450Z,78.40
2019-02-15T12:38:13.646Z,77.90
2019-02-15T12:40:43.880Z,72.70
2019-02-15T12:43:14.133Z,69.40
2019-02-15T12:45:44.505Z,67.30
2019-02-15T12:48:14.809Z,65.50
2019-02-15T12:50:45.585Z,64.90
2019-02-15T12:53:15.873Z,59.50
2019-02-15T12:55:46.135Z,60.50
2019-02-15T12:58:16.412Z,59.90
2019-02-15T13:00:46.652Z,60.20
2019-02-15T13:03:16.970Z,59.50
2019-02-15T13:05:47.289Z,56.90
2019-02-15T13:08:17.508Z,58.30
2019-02-15T13:10:47.797Z,57.10
2019-02-15T13:13:18.269Z,55.80
2019-02-15T13:15:48.556Z,55.10
2019-02-15T13:18:18.775Z,55.30
2019-02-15T13:20:49.041Z,54.90
2019-02-15T13:23:19.327Z,55.50
2019-02-15T13:25:49.654Z,57.00
2019-02-15T13:28:19.945Z,55.40
2019-02-15T13:30:50.195Z,54.20
2019-02-15T13:33:20.549Z,52.80
2019-02-15T13:35:50.817Z,52.60
2019-02-15T13:38:21.155Z,53.30
2019-02-15T13:40:51.506Z,52.80
2019-02-15T13:43:23.209Z,52.50
2019-02-15T13:45:53.490Z,52.40
2019-02-15T13:48:23.789Z,55.40
2019-02-15T13:50:54.091Z,53.20
2019-02-15T13:53:24.328Z,52.80
2019-02-15T13:55:54.676Z,53.20
2019-02-15T13:58:24.919Z,53.10
2019-02-15T14:00:55.186Z,52.80
2019-02-15T14:03:25.527Z,53.00
2019-02-15T14:05:55.818Z,53.40
2019-02-15T14:08:26.279Z,52.70
2019-02-15T14:10:56.475Z,53.20
2019-02-15T14:13:26.792Z,56.30
2019-02-15T14:15:57.141Z,53.70
2019-02-15T14:18:27.428Z,53.90
2019-02-15T14:20:57.800Z,56.10
2019-02-15T14:23:28.101Z,53.10
2019-02-15T14:25:59.081Z,56.50
2019-02-15T14:28:30.428Z,55.70
2019-02-15T14:31:01.923Z,54.40
2019-02-15T14:33:33.335Z,53.20
2019-02-15T14:36:04.976Z,54.40
2019-02-15T14:38:36.260Z,54.10
2019-02-15T14:41:06.469Z,54.80
2019-02-15T14:43:36.709Z,55.90
2019-02-15T14:46:06.884Z,54.30
2019-02-15T14:48:37.170Z,55.00
2019-02-15T14:51:07.480Z,51.80
2019-02-15T14:53:37.709Z,52.20
2019-02-15T14:56:07.928Z,52.60
2019-02-15T14:58:38.161Z,52.20
2019-02-15T15:01:08.344Z,52.90
2019-02-15T15:03:38.604Z,52.10
2019-02-15T15:06:08.779Z,52.40
2019-02-15T15:08:38.996Z,52.10
2019-02-15T15:11:09.261Z,50.40
2019-02-15T15:13:39.540Z,49.00
2019-02-15T15:16:09.789Z,50.40
2019-02-15T15:18:40.081Z,52.00
2019-02-15T15:21:10.284Z,52.80
2019-02-15T15:23:40.503Z,50.30
2019-02-15T15:26:12.115Z,51.00
2019-02-15T15:28:42.509Z,51.00
2019-02-15T15:31:12.747Z,50.40
2019-02-15T15:33:42.942Z,51.60
2019-02-15T15:36:13.233Z,49.80
2019-02-15T15:38:43.437Z,50.00
2019-02-15T15:41:13.765Z,51.10
2019-02-15T15:43:44.031Z,50.00
2019-02-15T15:46:14.301Z,49.20
2019-02-15T15:48:44.550Z,51.00
2019-02-15T15:51:14.853Z,51.50
2019-02-15T15:53:45.069Z,52.70
2019-02-15T15:56:15.324Z,53.80
2019-02-15T15:58:45.618Z,51.70
2019-02-15T16:01:15.888Z,52.80
2019-02-15T16:03:46.222Z,52.20
2019-02-15T16:06:24.109Z,51.90
2019-02-15T16:08:48.393Z,51.40
2019-02-15T16:11:18.771Z,54.40
2019-02-15T16:13:49.072Z,54.70
2019-02-15T16:16:19.423Z,55.70
2019-02-15T16:18:49.769Z,56.80
2019-02-15T16:21:22.012Z,57.60
2019-02-15T16:23:52.068Z,54.30
2019-02-15T16:26:22.403Z,56.30
2019-02-15T16:28:52.722Z,58.40
2019-02-15T16:31:23.034Z,58.70
2019-02-15T16:33:53.305Z,60.30
2019-02-15T16:36:23.687Z,60.50
2019-02-15T16:38:53.891Z,59.20
2019-02-15T16:41:24.241Z,61.80
2019-02-15T16:43:54.568Z,63.10
2019-02-15T16:46:24.875Z,63.70
2019-02-15T16:48:55.150Z,65.20
2019-02-15T16:51:25.477Z,65.40
2019-02-15T16:53:55.918Z,66.40
2019-02-15T16:56:26.250Z,67.20
2019-02-15T16:58:56.567Z,68.10
2019-02-15T17:01:26.884Z,70.00
2019-02-15T17:03:57.335Z,69.50
2019-02-15T17:06:27.645Z,69.40
2019-02-15T17:09:03.677Z,70.10
2019-02-15T17:11:34.010Z,70.40
2019-02-15T17:14:04.383Z,71.10
2019-02-15T17:16:34.608Z,72.10
2019-02-15T17:19:04.938Z,72.80
2019-02-15T17:21:35.293Z,72.70
2019-02-15T17:24:05.618Z,74.00
2019-02-15T17:26:35.961Z,73.20
2019-02-15T17:29:06.296Z,74.80
2019-02-15T17:31:36.544Z,75.70
2019-02-15T17:34:06.929Z,76.10
2019-02-15T17:36:37.263Z,76.70
2019-02-15T17:39:07.763Z,77.30
2019-02-15T17:41:38.074Z,77.20
2019-02-15T17:44:09.516Z,76.30
2019-02-15T17:46:39.779Z,77.90
2019-02-15T17:49:10.111Z,78.70
2019-02-15T17:51:40.443Z,79.20
2019-02-15T17:54:10.985Z,79.70
2019-02-15T17:56:41.332Z,80.10
2019-02-15T17:59:11.685Z,81.00
2019-02-15T18:01:42.002Z,80.80
2019-02-15T18:04:12.325Z,82.30
2019-02-15T18:06:42.645Z,82.30
2019-02-15T18:09:12.917Z,82.80
2019-02-15T18:11:43.316Z,82.90
2019-02-15T18:14:13.625Z,83.50
2019-02-15T18:16:43.879Z,84.00
2019-02-15T18:19:14.177Z,84.80
2019-02-15T18:21:44.517Z,85.70
2019-02-15T18:24:14.960Z,86.20
2019-02-15T18:26:45.334Z,86.90
2019-02-15T18:29:15.663Z,87.00
2019-02-15T18:31:45.991Z,87.70
2019-02-15T18:34:16.289Z,88.00
2019-02-15T18:36:46.666Z,88.90
2019-02-15T18:39:16.937Z,89.00
2019-02-15T18:41:47.272Z,89.30
2019-02-15T18:44:17.570Z,89.50
2019-02-15T18:46:48.073Z,90.10
2019-02-15T18:49:19.668Z,90.40
2019-02-15T18:51:50.152Z,90.60
2019-02-15T18:54:20.481Z,90.50
2019-02-15T18:56:50.753Z,90.70
2019-02-15T18:59:21.051Z,90.80
2019-02-15T19:01:51.389Z,90.90
2019-02-15T19:04:21.682Z,91.20
2019-02-15T19:06:51.988Z,91.30
2019-02-15T19:09:22.295Z,91.50
2019-02-15T19:11:52.625Z,91.60
2019-02-15T19:14:23.010Z,91.70
2019-02-15T19:16:53.434Z,91.90
2019-02-15T19:19:29.085Z,91.80
2019-02-15T19:21:55.829Z,92.20
2019-02-15T19:24:29.229Z,92.30
2019-02-15T19:26:59.532Z,92.60
2019-02-15T19:29:29.845Z,92.90
2019-02-15T19:32:00.134Z,92.90
2019-02-15T19:34:30.462Z,93.00
2019-02-15T19:37:00.750Z,93.00
2019-02-15T19:39:31.154Z,93.20
2019-02-15T19:42:01.601Z,93.30
2019-02-15T19:44:31.836Z,93.60
2019-02-15T19:47:02.088Z,93.60
2019-02-15T19:49:38.646Z,93.80
2019-02-15T19:52:04.311Z,94.10
2019-02-15T19:54:34.650Z,94.30
2019-02-15T19:57:04.934Z,94.40
2019-02-15T19:59:36.503Z,94.40
2019-02-15T20:02:06.779Z,94.30
2019-02-15T20:04:36.959Z,94.60
2019-02-15T20:07:07.370Z,94.60
2019-02-15T20:09:37.705Z,94.70
2019-02-15T20:12:07.963Z,94.80
2019-02-15T20:14:38.291Z,94.80
2019-02-15T20:17:08.570Z,95.00
2019-02-15T20:19:48.012Z,94.90
2019-02-15T20:22:10.816Z,95.10
2019-02-15T20:24:41.115Z,95.10
2019-02-15T20:27:11.508Z,95.10
2019-02-15T20:29:49.211Z,95.30
2019-02-15T20:32:13.807Z,95.40
2019-02-15T20:34:45.389Z,95.40
2019-02-15T20:37:15.844Z,95.50
2019-02-15T20:39:46.191Z,95.70
2019-02-15T20:42:16.509Z,95.80
2019-02-15T20:44:46.832Z,96.00
2019-02-15T20:47:17.092Z,96.20
2019-02-15T20:49:47.397Z,96.20
2019-02-15T20:52:17.636Z,96.10
2019-02-15T20:54:47.951Z,96.20
2019-02-15T20:57:18.266Z,96.20
2019-02-15T20:59:48.504Z,96.20
2019-02-15T21:02:18.809Z,96.20
2019-02-15T21:04:49.033Z,96.30
2019-02-15T21:07:19.367Z,96.40
2019-02-15T21:09:49.669Z,96.00
2019-02-15T21:12:19.924Z,96.00
2019-02-15T21:14:50.224Z,96.20
2019-02-15T21:17:20.489Z,96.00
2019-02-15T21:19:50.821Z,96.10
2019-02-15T21:22:21.027Z,96.20
2019-02-15T21:24:51.306Z,96.30
2019-02-15T21:27:21.606Z,96.40
2019-02-15T21:29:51.928Z,96.70
2019-02-15T21:32:22.237Z,96.70
2019-02-15T21:34:52.442Z,96.60
2019-02-15T21:37:22.770Z,96.50
2019-02-15T21:39:53.060Z,96.60
2019-02-15T21:42:23.374Z,96.60
2019-02-15T21:44:53.753Z,96.70
2019-02-15T21:47:24.052Z,96.60
2019-02-15T21:49:54.273Z,96.70
2019-02-15T21:52:24.493Z,96.80
2019-02-15T21:54:54.800Z,96.90
2019-02-15T21:57:25.097Z,96.80
2019-02-15T21:59:55.421Z,96.80
2019-02-15T22:02:25.772Z,96.80
2019-02-15T22:04:56.041Z,97.00
2019-02-15T22:07:26.365Z,96.90
2019-02-15T22:09:56.577Z,97.00
2019-02-15T22:12:26.893Z,97.00
2019-02-15T22:14:57.209Z,96.80
2019-02-15T22:17:27.556Z,96.70
2019-02-15T22:19:58.196Z,96.70
2019-02-15T22:22:28.708Z,97.20
2019-02-15T22:24:59.093Z,97.20
2019-02-15T22:27:29.488Z,97.40
2019-02-15T22:29:59.768Z,97.40
2019-02-15T22:32:30.119Z,97.40
2019-02-15T22:35:00.471Z,97.50
2019-02-15T22:37:30.860Z,97.50
2019-02-15T22:40:30.311Z,97.80
2019-02-15T22:43:03.259Z,97.80
2019-02-15T22:45:33.573Z,97.60
2019-02-15T22:48:03.824Z,97.80
2019-02-15T22:50:36.277Z,97.70
2019-02-15T22:53:05.993Z,97.60
2019-02-15T22:55:36.169Z,97.50
2019-02-15T22:58:06.399Z,97.70
2019-02-15T23:00:54.260Z,97.80
2019-02-15T23:03:25.668Z,98.00
2019-02-15T23:05:56.040Z,98.00
2019-02-15T23:08:26.343Z,97.90
2019-02-15T23:10:56.559Z,97.80
2019-02-15T23:13:26.874Z,98.00
2019-02-15T23:15:57.215Z,97.90
2019-02-15T23:18:27.417Z,98.10
2019-02-15T23:20:57.685Z,98.10
2019-02-15T23:23:27.992Z,98.00
2019-02-15T23:25:58.292Z,97.90
2019-02-15T23:28:28.608Z,97.90
2019-02-15T23:30:58.879Z,98.30
2019-02-15T23:33:29.189Z,98.50
2019-02-15T23:35:59.514Z,98.60
2019-02-15T23:38:29.728Z,98.50
2019-02-15T23:41:00.017Z,98.50
2019-02-15T23:43:30.320Z,98.50
2019-02-15T23:46:00.600Z,98.50
2019-02-15T23:48:30.943Z,98.40
2019-02-15T23:51:01.142Z,98.60
2019-02-15T23:53:31.380Z,98.60
2019-02-15T23:56:01.667Z,98.70
2019-02-15T23:58:31.938Z,98.60
